Terminal Aerodrome Forecast
Issued by NWS

Home | Current Version | Previous Version | Text Only | Print | Product List | Glossary On
Versions: 1 2 3 4 5 6 7 8 9 10 11 12 13 14 15 16 17 18 19 20 21 22 23 24 25 26 27
000
FTPQ31 PGUM 290344 AAB
TAFKMJ
TAF AMD
PKMJ 290344Z 2904/2924 07012G20KT 6SM SHRA VCTS SCT014CB BKN040
      OVC110
      TEMPO 2904/2907 3SM +SHRA OVC014
     FM291300 06015KT P6SM VCSH SCT015 BKN050 OVC120=

USA.gov is the U.S. government's official web portal to all federal, state and local government web resources and services.